Terminal Aerodrome Forecast
Issued by NWS

Home | Current Version | Previous Version | Text Only | Print | Product List | Glossary On
Versions: 1 2 3 4 5 6 7 8 9 10 11 12 13 14 15 16 17 18
711
FTUS46 KMTR 240520
TAFSNS
TAF
KSNS 240520Z 2406/2506 26006KT 3SM BR OVC009
      TEMPO 2408/2412 -DZ
     FM241200 26004KT 6SM -DZ BR OVC015
     FM241800 29012KT P6SM SCT012 BKN050
     FM250200 29010KT P6SM OVC011=

USA.gov is the U.S. government's official web portal to all federal, state and local government web resources and services.